sensor_id;sensor_type;location;lat;lon;timestamp;P1;durP1;ratioP1;P2;durP2;ratioP2
5493;SDS011;2769;49.864;8.656;2023-03-14T00:02:16;1.17;;;1.07;;
5493;SDS011;2769;49.864;8.656;2023-03-14T00:04:46;1.50;;;1.40;;
5493;SDS011;2769;49.864;8.656;2023-03-14T00:07:14;2.60;;;1.30;;
5493;SDS011;2769;49.864;8.656;2023-03-14T00:09:42;1.07;;;1.07;;
5493;SDS011;2769;49.864;8.656;2023-03-14T00:12:10;1.87;;;1.20;;
5493;SDS011;2769;49.864;8.656;2023-03-14T00:14:38;3.57;;;1.23;;
5493;SDS011;2769;49.864;8.656;2023-03-14T00:17:06;1.43;;;1.23;;
5493;SDS011;2769;49.864;8.656;2023-03-14T00:19:33;4.30;;;1.37;;
5493;SDS011;2769;49.864;8.656;2023-03-14T00:22:03;1.50;;;1.50;;
5493;SDS011;2769;49.864;8.656;2023-03-14T00:24:31;1.33;;;1.13;;
5493;SDS011;2769;49.864;8.656;2023-03-14T00:26:59;0.90;;;0.90;;
5493;SDS011;2769;49.864;8.656;2023-03-14T00:29:26;1.83;;;1.03;;
5493;SDS011;2769;49.864;8.656;2023-03-14T00:31:54;2.30;;;1.23;;
5493;SDS011;2769;49.864;8.656;2023-03-14T00:34:22;2.10;;;1.20;;
5493;SDS011;2769;49.864;8.656;2023-03-14T00:36:50;1.20;;;1.10;;
5493;SDS011;2769;49.864;8.656;2023-03-14T00:39:19;4.57;;;1.40;;
5493;SDS011;2769;49.864;8.656;2023-03-14T00:41:47;1.87;;;1.40;;
5493;SDS011;2769;49.864;8.656;2023-03-14T00:44:21;1.10;;;1.00;;
5493;SDS011;2769;49.864;8.656;2023-03-14T00:46:49;4.83;;;1.53;;
5493;SDS011;2769;49.864;8.656;2023-03-14T00:49:17;2.47;;;1.10;;
5493;SDS011;2769;49.864;8.656;2023-03-14T00:51:45;2.57;;;1.10;;
5493;SDS011;2769;49.864;8.656;2023-03-14T00:54:13;6.10;;;1.10;;
5493;SDS011;2769;49.864;8.656;2023-03-14T00:56:45;1.10;;;1.10;;
5493;SDS011;2769;49.864;8.656;2023-03-14T00:59:15;1.13;;;1.03;;
5493;SDS011;2769;49.864;8.656;2023-03-14T01:01:43;3.03;;;1.20;;
5493;SDS011;2769;49.864;8.656;2023-03-14T01:04:11;1.20;;;1.10;;
5493;SDS011;2769;49.864;8.656;2023-03-14T01:06:39;4.80;;;1.27;;
5493;SDS011;2769;49.864;8.656;2023-03-14T01:09:09;2.50;;;1.33;;
5493;SDS011;2769;49.864;8.656;2023-03-14T01:11:37;1.27;;;1.17;;
5493;SDS011;2769;49.864;8.656;2023-03-14T01:14:07;2.50;;;1.20;;
5493;SDS011;2769;49.864;8.656;2023-03-14T01:16:35;2.80;;;1.17;;
5493;SDS011;2769;49.864;8.656;2023-03-14T01:19:06;1.33;;;1.10;;
5493;SDS011;2769;49.864;8.656;2023-03-14T01:21:34;1.40;;;1.30;;
5493;SDS011;2769;49.864;8.656;2023-03-14T01:24:03;2.50;;;1.40;;
5493;SDS011;2769;49.864;8.656;2023-03-14T01:26:35;1.20;;;1.13;;
5493;SDS011;2769;49.864;8.656;2023-03-14T01:29:24;1.73;;;1.60;;
5493;SDS011;2769;49.864;8.656;2023-03-14T01:31:52;1.73;;;1.00;;
5493;SDS011;2769;49.864;8.656;2023-03-14T01:34:20;1.63;;;1.50;;
5493;SDS011;2769;49.864;8.656;2023-03-14T01:36:51;1.90;;;0.90;;
5493;SDS011;2769;49.864;8.656;2023-03-14T01:39:20;2.73;;;1.20;;
5493;SDS011;2769;49.864;8.656;2023-03-14T01:41:51;2.30;;;1.37;;
5493;SDS011;2769;49.864;8.656;2023-03-14T01:44:19;1.40;;;1.30;;
5493;SDS011;2769;49.864;8.656;2023-03-14T01:46:49;2.63;;;1.37;;
5493;SDS011;2769;49.864;8.656;2023-03-14T01:49:19;2.50;;;1.00;;
5493;SDS011;2769;49.864;8.656;2023-03-14T01:52:00;2.10;;;1.00;;
5493;SDS011;2769;49.864;8.656;2023-03-14T01:54:31;1.53;;;1.00;;
5493;SDS011;2769;49.864;8.656;2023-03-14T01:57:03;2.40;;;0.97;;
5493;SDS011;2769;49.864;8.656;2023-03-14T01:59:34;2.43;;;1.30;;
5493;SDS011;2769;49.864;8.656;2023-03-14T02:02:04;1.40;;;1.30;;
5493;SDS011;2769;49.864;8.656;2023-03-14T02:04:34;1.30;;;1.20;;
5493;SDS011;2769;49.864;8.656;2023-03-14T02:07:05;1.47;;;1.10;;
5493;SDS011;2769;49.864;8.656;2023-03-14T02:09:40;3.97;;;1.10;;
5493;SDS011;2769;49.864;8.656;2023-03-14T02:12:14;2.00;;;1.20;;
5493;SDS011;2769;49.864;8.656;2023-03-14T02:14:47;3.50;;;1.20;;
5493;SDS011;2769;49.864;8.656;2023-03-14T02:17:22;1.00;;;0.90;;
5493;SDS011;2769;49.864;8.656;2023-03-14T02:20:21;2.00;;;1.13;;
5493;SDS011;2769;49.864;8.656;2023-03-14T02:22:56;4.57;;;1.37;;
5493;SDS011;2769;49.864;8.656;2023-03-14T02:25:27;2.70;;;1.47;;
5493;SDS011;2769;49.864;8.656;2023-03-14T02:28:03;1.20;;;1.00;;
5493;SDS011;2769;49.864;8.656;2023-03-14T02:30:32;2.73;;;1.40;;
5493;SDS011;2769;49.864;8.656;2023-03-14T02:33:03;3.03;;;1.20;;
5493;SDS011;2769;49.864;8.656;2023-03-14T02:35:32;2.10;;;1.30;;
5493;SDS011;2769;49.864;8.656;2023-03-14T02:38:03;3.33;;;1.50;;
5493;SDS011;2769;49.864;8.656;2023-03-14T02:40:38;5.03;;;1.00;;
5493;SDS011;2769;49.864;8.656;2023-03-14T02:43:07;3.30;;;1.20;;
5493;SDS011;2769;49.864;8.656;2023-03-14T02:45:39;1.83;;;1.53;;
5493;SDS011;2769;49.864;8.656;2023-03-14T02:48:18;1.90;;;1.10;;
5493;SDS011;2769;49.864;8.656;2023-03-14T02:50:48;4.10;;;1.10;;
5493;SDS011;2769;49.864;8.656;2023-03-14T02:53:19;4.07;;;1.43;;
5493;SDS011;2769;49.864;8.656;2023-03-14T02:55:49;3.03;;;1.10;;
5493;SDS011;2769;49.864;8.656;2023-03-14T02:58:22;3.97;;;1.27;;
5493;SDS011;2769;49.864;8.656;2023-03-14T03:00:55;2.63;;;1.80;;
5493;SDS011;2769;49.864;8.656;2023-03-14T03:03:23;5.77;;;1.93;;
5493;SDS011;2769;49.864;8.656;2023-03-14T03:05:52;2.13;;;1.17;;
5493;SDS011;2769;49.864;8.656;2023-03-14T03:08:23;1.83;;;1.23;;
5493;SDS011;2769;49.864;8.656;2023-03-14T03:10:53;3.13;;;1.20;;
5493;SDS011;2769;49.864;8.656;2023-03-14T03:13:22;2.93;;;1.30;;
5493;SDS011;2769;49.864;8.656;2023-03-14T03:15:52;2.10;;;1.47;;
5493;SDS011;2769;49.864;8.656;2023-03-14T03:18:20;3.83;;;1.40;;
5493;SDS011;2769;49.864;8.656;2023-03-14T03:20:48;2.33;;;1.20;;
5493;SDS011;2769;49.864;8.656;2023-03-14T03:23:16;1.73;;;1.20;;
5493;SDS011;2769;49.864;8.656;2023-03-14T03:25:47;2.43;;;1.33;;
5493;SDS011;2769;49.864;8.656;2023-03-14T03:28:16;1.57;;;1.13;;
5493;SDS011;2769;49.864;8.656;2023-03-14T03:30:45;3.33;;;1.30;;
5493;SDS011;2769;49.864;8.656;2023-03-14T03:33:13;4.73;;;1.30;;
5493;SDS011;2769;49.864;8.656;2023-03-14T03:35:44;3.17;;;1.27;;
5493;SDS011;2769;49.864;8.656;2023-03-14T03:38:15;5.17;;;1.57;;
5493;SDS011;2769;49.864;8.656;2023-03-14T03:40:45;1.40;;;1.30;;
5493;SDS011;2769;49.864;8.656;2023-03-14T03:43:14;7.30;;;1.50;;
5493;SDS011;2769;49.864;8.656;2023-03-14T03:45:48;3.07;;;1.27;;
5493;SDS011;2769;49.864;8.656;2023-03-14T03:48:17;3.90;;;1.60;;
5493;SDS011;2769;49.864;8.656;2023-03-14T03:50:45;3.03;;;1.17;;
5493;SDS011;2769;49.864;8.656;2023-03-14T03:53:16;4.87;;;1.60;;
5493;SDS011;2769;49.864;8.656;2023-03-14T03:55:59;1.93;;;1.30;;
5493;SDS011;2769;49.864;8.656;2023-03-14T03:58:27;2.63;;;1.20;;
5493;SDS011;2769;49.864;8.656;2023-03-14T04:00:56;7.17;;;1.20;;
5493;SDS011;2769;49.864;8.656;2023-03-14T04:03:24;4.40;;;1.20;;
5493;SDS011;2769;49.864;8.656;2023-03-14T04:05:58;3.70;;;1.30;;
5493;SDS011;2769;49.864;8.656;2023-03-14T04:08:26;2.57;;;1.30;;
5493;SDS011;2769;49.864;8.656;2023-03-14T04:10:55;3.30;;;1.10;;
5493;SDS011;2769;49.864;8.656;2023-03-14T04:13:37;1.70;;;1.40;;
5493;SDS011;2769;49.864;8.656;2023-03-14T04:16:10;5.60;;;1.20;;
5493;SDS011;2769;49.864;8.656;2023-03-14T04:18:43;1.67;;;1.00;;
5493;SDS011;2769;49.864;8.656;2023-03-14T04:21:11;1.73;;;1.13;;
5493;SDS011;2769;49.864;8.656;2023-03-14T04:23:45;2.30;;;1.27;;
5493;SDS011;2769;49.864;8.656;2023-03-14T04:26:14;6.37;;;1.47;;
5493;SDS011;2769;49.864;8.656;2023-03-14T04:28:42;2.53;;;1.37;;
5493;SDS011;2769;49.864;8.656;2023-03-14T04:31:12;5.13;;;1.57;;
5493;SDS011;2769;49.864;8.656;2023-03-14T04:33:41;4.80;;;1.50;;
5493;SDS011;2769;49.864;8.656;2023-03-14T04:36:13;5.17;;;1.50;;
5493;SDS011;2769;49.864;8.656;2023-03-14T04:38:42;1.67;;;1.10;;
5493;SDS011;2769;49.864;8.656;2023-03-14T04:41:12;1.20;;;1.10;;
5493;SDS011;2769;49.864;8.656;2023-03-14T04:43:39;1.20;;;1.10;;
5493;SDS011;2769;49.864;8.656;2023-03-14T04:46:11;6.90;;;1.70;;
5493;SDS011;2769;49.864;8.656;2023-03-14T04:48:40;3.43;;;1.40;;
5493;SDS011;2769;49.864;8.656;2023-03-14T04:51:08;3.17;;;1.47;;
5493;SDS011;2769;49.864;8.656;2023-03-14T04:53:36;1.23;;;1.13;;
5493;SDS011;2769;49.864;8.656;2023-03-14T04:56:08;3.73;;;1.50;;
5493;SDS011;2769;49.864;8.656;2023-03-14T04:58:41;5.07;;;1.30;;
5493;SDS011;2769;49.864;8.656;2023-03-14T05:01:09;4.97;;;1.40;;
5493;SDS011;2769;49.864;8.656;2023-03-14T05:04:10;2.97;;;1.50;;
5493;SDS011;2769;49.864;8.656;2023-03-14T05:07:05;3.83;;;1.63;;
5493;SDS011;2769;49.864;8.656;2023-03-14T05:09:56;3.17;;;1.30;;
5493;SDS011;2769;49.864;8.656;2023-03-14T05:12:47;2.40;;;1.40;;
5493;SDS011;2769;49.864;8.656;2023-03-14T05:15:33;2.23;;;1.53;;
5493;SDS011;2769;49.864;8.656;2023-03-14T05:18:15;2.67;;;1.30;;
5493;SDS011;2769;49.864;8.656;2023-03-14T05:20:56;1.10;;;1.00;;
5493;SDS011;2769;49.864;8.656;2023-03-14T05:23:45;2.60;;;1.30;;
5493;SDS011;2769;49.864;8.656;2023-03-14T05:26:29;2.77;;;1.40;;
5493;SDS011;2769;49.864;8.656;2023-03-14T05:29:36;3.07;;;1.10;;
5493;SDS011;2769;49.864;8.656;2023-03-14T05:32:25;2.87;;;1.10;;
5493;SDS011;2769;49.864;8.656;2023-03-14T05:35:13;5.00;;;1.90;;
5493;SDS011;2769;49.864;8.656;2023-03-14T05:37:52;0.80;;;0.80;;
5493;SDS011;2769;49.864;8.656;2023-03-14T05:40:38;4.47;;;1.30;;
5493;SDS011;2769;49.864;8.656;2023-03-14T05:43:19;3.10;;;1.30;;
5493;SDS011;2769;49.864;8.656;2023-03-14T05:46:10;1.80;;;1.00;;
5493;SDS011;2769;49.864;8.656;2023-03-14T05:48:48;2.17;;;1.10;;
5493;SDS011;2769;49.864;8.656;2023-03-14T05:51:34;1.50;;;1.00;;
5493;SDS011;2769;49.864;8.656;2023-03-14T05:54:22;1.33;;;1.23;;
5493;SDS011;2769;49.864;8.656;2023-03-14T05:57:08;2.30;;;0.90;;
5493;SDS011;2769;49.864;8.656;2023-03-14T05:59:46;2.63;;;1.27;;
5493;SDS011;2769;49.864;8.656;2023-03-14T06:02:32;1.43;;;0.90;;
5493;SDS011;2769;49.864;8.656;2023-03-14T06:05:09;4.20;;;1.30;;
5493;SDS011;2769;49.864;8.656;2023-03-14T06:07:37;7.47;;;1.90;;
5493;SDS011;2769;49.864;8.656;2023-03-14T06:10:07;1.33;;;1.13;;
5493;SDS011;2769;49.864;8.656;2023-03-14T06:12:37;3.67;;;1.10;;
5493;SDS011;2769;49.864;8.656;2023-03-14T06:15:05;3.27;;;1.17;;
5493;SDS011;2769;49.864;8.656;2023-03-14T06:17:34;3.23;;;1.67;;
5493;SDS011;2769;49.864;8.656;2023-03-14T06:20:07;0.97;;;0.97;;
5493;SDS011;2769;49.864;8.656;2023-03-14T06:22:37;5.17;;;1.30;;
5493;SDS011;2769;49.864;8.656;2023-03-14T06:25:08;5.17;;;1.33;;
5493;SDS011;2769;49.864;8.656;2023-03-14T06:27:36;1.57;;;1.47;;
5493;SDS011;2769;49.864;8.656;2023-03-14T06:30:05;2.87;;;1.30;;
5493;SDS011;2769;49.864;8.656;2023-03-14T06:32:34;1.30;;;1.23;;
5493;SDS011;2769;49.864;8.656;2023-03-14T06:35:06;3.27;;;1.43;;
5493;SDS011;2769;49.864;8.656;2023-03-14T06:37:39;1.70;;;1.00;;
5493;SDS011;2769;49.864;8.656;2023-03-14T06:40:09;1.40;;;1.10;;
5493;SDS011;2769;49.864;8.656;2023-03-14T06:43:02;2.17;;;1.13;;
5493;SDS011;2769;49.864;8.656;2023-03-14T06:45:31;4.63;;;1.57;;
5493;SDS011;2769;49.864;8.656;2023-03-14T06:48:01;3.33;;;1.00;;
5493;SDS011;2769;49.864;8.656;2023-03-14T06:50:37;3.17;;;1.20;;
5493;SDS011;2769;49.864;8.656;2023-03-14T06:53:05;1.30;;;1.17;;
5493;SDS011;2769;49.864;8.656;2023-03-14T06:55:38;3.87;;;1.10;;
5493;SDS011;2769;49.864;8.656;2023-03-14T06:58:07;1.27;;;0.90;;
5493;SDS011;2769;49.864;8.656;2023-03-14T07:00:40;1.30;;;0.87;;
5493;SDS011;2769;49.864;8.656;2023-03-14T07:03:11;2.77;;;1.07;;
5493;SDS011;2769;49.864;8.656;2023-03-14T07:05:43;3.13;;;1.07;;
5493;SDS011;2769;49.864;8.656;2023-03-14T07:08:11;2.37;;;1.00;;
5493;SDS011;2769;49.864;8.656;2023-03-14T07:10:41;3.50;;;0.83;;
5493;SDS011;2769;49.864;8.656;2023-03-14T07:13:09;2.80;;;1.20;;
5493;SDS011;2769;49.864;8.656;2023-03-14T07:15:48;1.77;;;1.20;;
5493;SDS011;2769;49.864;8.656;2023-03-14T07:18:16;1.97;;;0.93;;
5493;SDS011;2769;49.864;8.656;2023-03-14T07:20:44;1.20;;;0.97;;
5493;SDS011;2769;49.864;8.656;2023-03-14T07:23:14;3.47;;;1.00;;
5493;SDS011;2769;49.864;8.656;2023-03-14T07:25:48;2.50;;;0.97;;
5493;SDS011;2769;49.864;8.656;2023-03-14T07:28:19;3.73;;;0.80;;
5493;SDS011;2769;49.864;8.656;2023-03-14T07:30:50;1.53;;;1.00;;
5493;SDS011;2769;49.864;8.656;2023-03-14T07:33:26;2.00;;;1.00;;
5493;SDS011;2769;49.864;8.656;2023-03-14T07:35:54;3.17;;;1.20;;
5493;SDS011;2769;49.864;8.656;2023-03-14T07:38:22;1.43;;;0.90;;
5493;SDS011;2769;49.864;8.656;2023-03-14T07:41:24;1.53;;;1.10;;
5493;SDS011;2769;49.864;8.656;2023-03-14T07:44:11;0.90;;;0.80;;
5493;SDS011;2769;49.864;8.656;2023-03-14T07:46:39;5.13;;;1.07;;
5493;SDS011;2769;49.864;8.656;2023-03-14T07:49:07;1.30;;;1.00;;
5493;SDS011;2769;49.864;8.656;2023-03-14T07:51:35;2.40;;;0.90;;
5493;SDS011;2769;49.864;8.656;2023-03-14T07:54:03;1.90;;;0.90;;
5493;SDS011;2769;49.864;8.656;2023-03-14T07:56:32;2.60;;;1.00;;
5493;SDS011;2769;49.864;8.656;2023-03-14T07:59:00;1.43;;;0.80;;
5493;SDS011;2769;49.864;8.656;2023-03-14T08:01:30;0.90;;;0.70;;
5493;SDS011;2769;49.864;8.656;2023-03-14T08:03:57;1.23;;;0.70;;
5493;SDS011;2769;49.864;8.656;2023-03-14T08:06:26;1.23;;;0.80;;
5493;SDS011;2769;49.864;8.656;2023-03-14T08:08:54;1.33;;;0.70;;
5493;SDS011;2769;49.864;8.656;2023-03-14T08:11:27;2.57;;;0.90;;
5493;SDS011;2769;49.864;8.656;2023-03-14T08:13:56;1.80;;;0.90;;
5493;SDS011;2769;49.864;8.656;2023-03-14T08:16:24;1.03;;;0.70;;
5493;SDS011;2769;49.864;8.656;2023-03-14T08:18:52;1.30;;;0.60;;
5493;SDS011;2769;49.864;8.656;2023-03-14T08:21:20;1.80;;;0.83;;
5493;SDS011;2769;49.864;8.656;2023-03-14T08:23:48;2.17;;;0.80;;
5493;SDS011;2769;49.864;8.656;2023-03-14T08:26:16;2.83;;;1.17;;
5493;SDS011;2769;49.864;8.656;2023-03-14T08:28:44;0.93;;;0.80;;
5493;SDS011;2769;49.864;8.656;2023-03-14T08:31:13;3.33;;;0.83;;
5493;SDS011;2769;49.864;8.656;2023-03-14T08:33:41;0.83;;;0.83;;
5493;SDS011;2769;49.864;8.656;2023-03-14T08:36:10;2.27;;;0.80;;
5493;SDS011;2769;49.864;8.656;2023-03-14T08:38:38;2.00;;;0.70;;
5493;SDS011;2769;49.864;8.656;2023-03-14T08:41:08;0.63;;;0.63;;
5493;SDS011;2769;49.864;8.656;2023-03-14T08:43:36;0.60;;;0.60;;
5493;SDS011;2769;49.864;8.656;2023-03-14T08:46:05;1.57;;;0.60;;
5493;SDS011;2769;49.864;8.656;2023-03-14T08:48:34;1.40;;;1.23;;
5493;SDS011;2769;49.864;8.656;2023-03-14T08:51:06;2.00;;;0.63;;
5493;SDS011;2769;49.864;8.656;2023-03-14T08:53:34;1.30;;;0.60;;
5493;SDS011;2769;49.864;8.656;2023-03-14T08:56:03;1.57;;;0.80;;
5493;SDS011;2769;49.864;8.656;2023-03-14T08:58:32;1.57;;;0.60;;
5493;SDS011;2769;49.864;8.656;2023-03-14T09:01:00;1.57;;;0.60;;
5493;SDS011;2769;49.864;8.656;2023-03-14T09:03:28;2.10;;;0.70;;
5493;SDS011;2769;49.864;8.656;2023-03-14T09:06:02;0.90;;;0.67;;
5493;SDS011;2769;49.864;8.656;2023-03-14T09:08:31;0.93;;;0.60;;
5493;SDS011;2769;49.864;8.656;2023-03-14T09:10:59;2.37;;;0.80;;
5493;SDS011;2769;49.864;8.656;2023-03-14T09:13:27;3.60;;;1.03;;
5493;SDS011;2769;49.864;8.656;2023-03-14T09:15:57;0.60;;;0.60;;
5493;SDS011;2769;49.864;8.656;2023-03-14T09:18:25;1.43;;;0.60;;
5493;SDS011;2769;49.864;8.656;2023-03-14T09:20:53;3.23;;;0.80;;
5493;SDS011;2769;49.864;8.656;2023-03-14T09:23:22;0.80;;;0.60;;
5493;SDS011;2769;49.864;8.656;2023-03-14T09:25:54;0.60;;;0.60;;
5493;SDS011;2769;49.864;8.656;2023-03-14T09:28:22;0.93;;;0.60;;
5493;SDS011;2769;49.864;8.656;2023-03-14T09:30:50;0.87;;;0.60;;
5493;SDS011;2769;49.864;8.656;2023-03-14T09:33:18;0.80;;;0.80;;
5493;SDS011;2769;49.864;8.656;2023-03-14T09:35:46;0.57;;;0.57;;
5493;SDS011;2769;49.864;8.656;2023-03-14T09:38:14;1.63;;;0.70;;
5493;SDS011;2769;49.864;8.656;2023-03-14T09:40:44;3.10;;;0.70;;
5493;SDS011;2769;49.864;8.656;2023-03-14T09:43:12;1.27;;;0.60;;
5493;SDS011;2769;49.864;8.656;2023-03-14T09:45:41;0.60;;;0.60;;
5493;SDS011;2769;49.864;8.656;2023-03-14T09:48:14;1.47;;;0.70;;
5493;SDS011;2769;49.864;8.656;2023-03-14T09:50:44;0.83;;;0.60;;
5493;SDS011;2769;49.864;8.656;2023-03-14T09:53:19;1.37;;;0.70;;
5493;SDS011;2769;49.864;8.656;2023-03-14T09:55:50;0.67;;;0.67;;
5493;SDS011;2769;49.864;8.656;2023-03-14T09:58:19;0.60;;;0.60;;
5493;SDS011;2769;49.864;8.656;2023-03-14T10:00:48;1.90;;;0.80;;
5493;SDS011;2769;49.864;8.656;2023-03-14T10:03:21;1.83;;;0.90;;
5493;SDS011;2769;49.864;8.656;2023-03-14T10:05:52;0.67;;;0.57;;
5493;SDS011;2769;49.864;8.656;2023-03-14T10:08:21;0.90;;;0.60;;
5493;SDS011;2769;49.864;8.656;2023-03-14T10:10:50;2.30;;;0.70;;
5493;SDS011;2769;49.864;8.656;2023-03-14T10:13:20;2.33;;;1.00;;
5493;SDS011;2769;49.864;8.656;2023-03-14T10:15:51;2.10;;;0.70;;
5493;SDS011;2769;49.864;8.656;2023-03-14T10:18:21;0.73;;;0.73;;
5493;SDS011;2769;49.864;8.656;2023-03-14T10:21:01;0.50;;;0.50;;
5493;SDS011;2769;49.864;8.656;2023-03-14T10:23:31;0.70;;;0.70;;
5493;SDS011;2769;49.864;8.656;2023-03-14T10:26:11;0.93;;;0.63;;
5493;SDS011;2769;49.864;8.656;2023-03-14T10:28:43;0.97;;;0.73;;
5493;SDS011;2769;49.864;8.656;2023-03-14T10:31:12;1.37;;;0.60;;
5493;SDS011;2769;49.864;8.656;2023-03-14T10:33:40;0.60;;;0.60;;
5493;SDS011;2769;49.864;8.656;2023-03-14T10:36:17;0.60;;;0.60;;
5493;SDS011;2769;49.864;8.656;2023-03-14T10:38:47;0.90;;;0.70;;
5493;SDS011;2769;49.864;8.656;2023-03-14T10:41:17;0.57;;;0.57;;
5493;SDS011;2769;49.864;8.656;2023-03-14T10:43:49;1.60;;;0.60;;
5493;SDS011;2769;49.864;8.656;2023-03-14T10:46:18;4.10;;;0.70;;
5493;SDS011;2769;49.864;8.656;2023-03-14T10:49:05;0.60;;;0.60;;
5493;SDS011;2769;49.864;8.656;2023-03-14T10:51:34;0.90;;;0.50;;
5493;SDS011;2769;49.864;8.656;2023-03-14T10:54:02;0.70;;;0.60;;
5493;SDS011;2769;49.864;8.656;2023-03-14T10:56:35;0.60;;;0.60;;
5493;SDS011;2769;49.864;8.656;2023-03-14T10:59:06;0.60;;;0.60;;
5493;SDS011;2769;49.864;8.656;2023-03-14T11:01:37;1.50;;;0.63;;
5493;SDS011;2769;49.864;8.656;2023-03-14T11:04:11;0.70;;;0.70;;
5493;SDS011;2769;49.864;8.656;2023-03-14T11:06:43;0.90;;;0.80;;
5493;SDS011;2769;49.864;8.656;2023-03-14T11:09:14;0.60;;;0.60;;
5493;SDS011;2769;49.864;8.656;2023-03-14T11:11:47;0.50;;;0.50;;
5493;SDS011;2769;49.864;8.656;2023-03-14T11:14:20;2.20;;;0.67;;
5493;SDS011;2769;49.864;8.656;2023-03-14T11:16:53;1.10;;;0.70;;
5493;SDS011;2769;49.864;8.656;2023-03-14T11:19:39;6.90;;;0.70;;
5493;SDS011;2769;49.864;8.656;2023-03-14T11:22:18;0.60;;;0.60;;
5493;SDS011;2769;49.864;8.656;2023-03-14T11:24:58;0.63;;;0.63;;
5493;SDS011;2769;49.864;8.656;2023-03-14T11:27:37;0.60;;;0.60;;
5493;SDS011;2769;49.864;8.656;2023-03-14T11:30:17;0.93;;;0.60;;
5493;SDS011;2769;49.864;8.656;2023-03-14T11:32:49;0.60;;;0.60;;
5493;SDS011;2769;49.864;8.656;2023-03-14T11:35:21;0.60;;;0.60;;
5493;SDS011;2769;49.864;8.656;2023-03-14T11:37:52;1.20;;;0.60;;
5493;SDS011;2769;49.864;8.656;2023-03-14T11:40:22;0.60;;;0.60;;
5493;SDS011;2769;49.864;8.656;2023-03-14T11:42:54;0.80;;;0.60;;
5493;SDS011;2769;49.864;8.656;2023-03-14T11:45:29;0.90;;;0.80;;
5493;SDS011;2769;49.864;8.656;2023-03-14T11:48:06;1.37;;;0.90;;
5493;SDS011;2769;49.864;8.656;2023-03-14T11:50:41;0.60;;;0.60;;
5493;SDS011;2769;49.864;8.656;2023-03-14T11:53:11;1.83;;;0.80;;
5493;SDS011;2769;49.864;8.656;2023-03-14T11:55:42;1.73;;;1.10;;
5493;SDS011;2769;49.864;8.656;2023-03-14T11:58:12;0.60;;;0.60;;
5493;SDS011;2769;49.864;8.656;2023-03-14T12:00:43;1.33;;;0.70;;
5493;SDS011;2769;49.864;8.656;2023-03-14T12:03:14;0.67;;;0.67;;
5493;SDS011;2769;49.864;8.656;2023-03-14T12:05:46;1.50;;;0.70;;
5493;SDS011;2769;49.864;8.656;2023-03-14T12:08:29;1.60;;;1.00;;
5493;SDS011;2769;49.864;8.656;2023-03-14T12:11:05;1.00;;;0.90;;
5493;SDS011;2769;49.864;8.656;2023-03-14T12:13:40;3.63;;;1.00;;
5493;SDS011;2769;49.864;8.656;2023-03-14T12:16:18;0.60;;;0.60;;
5493;SDS011;2769;49.864;8.656;2023-03-14T12:18:58;0.80;;;0.80;;
5493;SDS011;2769;49.864;8.656;2023-03-14T12:21:46;1.57;;;0.80;;
5493;SDS011;2769;49.864;8.656;2023-03-14T12:24:17;0.60;;;0.60;;
5493;SDS011;2769;49.864;8.656;2023-03-14T12:26:48;0.60;;;0.60;;
5493;SDS011;2769;49.864;8.656;2023-03-14T12:29:20;0.40;;;0.40;;
5493;SDS011;2769;49.864;8.656;2023-03-14T12:31:49;0.40;;;0.40;;
5493;SDS011;2769;49.864;8.656;2023-03-14T12:34:34;0.50;;;0.50;;
5493;SDS011;2769;49.864;8.656;2023-03-14T12:37:06;0.50;;;0.50;;
5493;SDS011;2769;49.864;8.656;2023-03-14T12:39:43;0.50;;;0.50;;
5493;SDS011;2769;49.864;8.656;2023-03-14T12:42:17;0.50;;;0.50;;
5493;SDS011;2769;49.864;8.656;2023-03-14T12:45:14;0.50;;;0.50;;
5493;SDS011;2769;49.864;8.656;2023-03-14T12:47:53;0.90;;;0.57;;
5493;SDS011;2769;49.864;8.656;2023-03-14T12:50:35;0.73;;;0.50;;
5493;SDS011;2769;49.864;8.656;2023-03-14T12:56:16;1.00;;;0.60;;
5493;SDS011;2769;49.864;8.656;2023-03-14T12:58:50;0.50;;;0.50;;
5493;SDS011;2769;49.864;8.656;2023-03-14T13:01:25;0.50;;;0.50;;
5493;SDS011;2769;49.864;8.656;2023-03-14T13:03:54;1.40;;;0.50;;
5493;SDS011;2769;49.864;8.656;2023-03-14T13:06:44;1.47;;;0.50;;
5493;SDS011;2769;49.864;8.656;2023-03-14T13:12:27;0.70;;;0.70;;
5493;SDS011;2769;49.864;8.656;2023-03-14T13:14:59;0.60;;;0.60;;
5493;SDS011;2769;49.864;8.656;2023-03-14T13:17:32;0.57;;;0.57;;
5493;SDS011;2769;49.864;8.656;2023-03-14T13:20:05;0.60;;;0.60;;
5493;SDS011;2769;49.864;8.656;2023-03-14T13:22:38;1.70;;;0.70;;
5493;SDS011;2769;49.864;8.656;2023-03-14T13:25:14;0.70;;;0.60;;
5493;SDS011;2769;49.864;8.656;2023-03-14T13:27:43;1.33;;;0.80;;
5493;SDS011;2769;49.864;8.656;2023-03-14T13:30:21;2.20;;;0.93;;
5493;SDS011;2769;49.864;8.656;2023-03-14T13:32:52;0.73;;;0.60;;
5493;SDS011;2769;49.864;8.656;2023-03-14T13:35:22;0.70;;;0.70;;
5493;SDS011;2769;49.864;8.656;2023-03-14T13:37:52;0.70;;;0.70;;
5493;SDS011;2769;49.864;8.656;2023-03-14T13:40:36;0.93;;;0.93;;
5493;SDS011;2769;49.864;8.656;2023-03-14T13:43:13;1.00;;;0.90;;
5493;SDS011;2769;49.864;8.656;2023-03-14T13:45:48;0.60;;;0.60;;
5493;SDS011;2769;49.864;8.656;2023-03-14T13:48:19;0.70;;;0.70;;
5493;SDS011;2769;49.864;8.656;2023-03-14T13:50:54;0.80;;;0.80;;
5493;SDS011;2769;49.864;8.656;2023-03-14T13:53:23;0.70;;;0.70;;
5493;SDS011;2769;49.864;8.656;2023-03-14T13:55:52;0.70;;;0.70;;
5493;SDS011;2769;49.864;8.656;2023-03-14T13:58:22;0.90;;;0.90;;
5493;SDS011;2769;49.864;8.656;2023-03-14T14:00:59;0.70;;;0.70;;
5493;SDS011;2769;49.864;8.656;2023-03-14T14:03:31;1.93;;;1.10;;
5493;SDS011;2769;49.864;8.656;2023-03-14T14:06:00;0.93;;;0.93;;
5493;SDS011;2769;49.864;8.656;2023-03-14T14:08:28;1.07;;;0.90;;
5493;SDS011;2769;49.864;8.656;2023-03-14T14:10:58;1.37;;;1.20;;
5493;SDS011;2769;49.864;8.656;2023-03-14T14:13:28;1.20;;;1.10;;
5493;SDS011;2769;49.864;8.656;2023-03-14T14:15:58;1.10;;;1.10;;
5493;SDS011;2769;49.864;8.656;2023-03-14T14:18:28;1.60;;;0.90;;
5493;SDS011;2769;49.864;8.656;2023-03-14T14:20:57;1.10;;;1.10;;
5493;SDS011;2769;49.864;8.656;2023-03-14T14:23:26;1.00;;;0.90;;
5493;SDS011;2769;49.864;8.656;2023-03-14T14:25:56;1.67;;;0.90;;
5493;SDS011;2769;49.864;8.656;2023-03-14T14:28:26;5.83;;;1.10;;
5493;SDS011;2769;49.864;8.656;2023-03-14T14:31:02;0.90;;;0.90;;
5493;SDS011;2769;49.864;8.656;2023-03-14T14:33:44;0.60;;;0.60;;
5493;SDS011;2769;49.864;8.656;2023-03-14T14:36:16;1.07;;;0.97;;
5493;SDS011;2769;49.864;8.656;2023-03-14T14:38:53;0.73;;;0.73;;
5493;SDS011;2769;49.864;8.656;2023-03-14T14:41:23;0.80;;;0.80;;
5493;SDS011;2769;49.864;8.656;2023-03-14T14:43:54;3.03;;;1.53;;
5493;SDS011;2769;49.864;8.656;2023-03-14T14:46:23;0.80;;;0.80;;
5493;SDS011;2769;49.864;8.656;2023-03-14T14:48:55;0.83;;;0.83;;
5493;SDS011;2769;49.864;8.656;2023-03-14T14:51:26;0.90;;;0.87;;
5493;SDS011;2769;49.864;8.656;2023-03-14T14:54:09;0.90;;;0.90;;
5493;SDS011;2769;49.864;8.656;2023-03-14T14:56:39;2.93;;;1.47;;
5493;SDS011;2769;49.864;8.656;2023-03-14T14:59:17;1.00;;;1.00;;
5493;SDS011;2769;49.864;8.656;2023-03-14T15:01:48;2.30;;;1.10;;
5493;SDS011;2769;49.864;8.656;2023-03-14T15:04:17;1.20;;;1.20;;
5493;SDS011;2769;49.864;8.656;2023-03-14T15:06:47;2.30;;;0.97;;
5493;SDS011;2769;49.864;8.656;2023-03-14T15:09:16;1.07;;;1.07;;
5493;SDS011;2769;49.864;8.656;2023-03-14T15:11:44;2.17;;;1.10;;
5493;SDS011;2769;49.864;8.656;2023-03-14T15:14:12;1.73;;;1.63;;
5493;SDS011;2769;49.864;8.656;2023-03-14T15:16:40;2.97;;;1.40;;
5493;SDS011;2769;49.864;8.656;2023-03-14T15:19:10;1.33;;;1.33;;
5493;SDS011;2769;49.864;8.656;2023-03-14T15:21:52;1.47;;;1.37;;
5493;SDS011;2769;49.864;8.656;2023-03-14T15:24:20;2.30;;;1.20;;
5493;SDS011;2769;49.864;8.656;2023-03-14T15:26:49;3.47;;;1.30;;
5493;SDS011;2769;49.864;8.656;2023-03-14T15:29:17;1.37;;;0.90;;
5493;SDS011;2769;49.864;8.656;2023-03-14T15:31:45;1.10;;;1.07;;
5493;SDS011;2769;49.864;8.656;2023-03-14T15:34:13;1.00;;;0.90;;
5493;SDS011;2769;49.864;8.656;2023-03-14T15:36:43;3.73;;;1.20;;
5493;SDS011;2769;49.864;8.656;2023-03-14T15:39:12;1.07;;;1.00;;
5493;SDS011;2769;49.864;8.656;2023-03-14T15:41:40;1.00;;;0.90;;
5493;SDS011;2769;49.864;8.656;2023-03-14T15:44:09;2.30;;;0.90;;
5493;SDS011;2769;49.864;8.656;2023-03-14T15:46:37;1.40;;;0.90;;
5493;SDS011;2769;49.864;8.656;2023-03-14T15:49:05;0.90;;;0.90;;
5493;SDS011;2769;49.864;8.656;2023-03-14T15:51:33;2.40;;;1.50;;
5493;SDS011;2769;49.864;8.656;2023-03-14T15:54:01;2.50;;;1.00;;